Ana Sayfa
METAR-TAF:

METAR-TAF

Havaalanları :

Lancaster Airport

Lancaster, Pensilvanya, Amerika Birleşik Devletleri

Enlem: 40-07-13N, Boylam: 076-17-40W, yükseklik: 123 m

Güncel hava durumu gözlemi

Rapor saat 04:53 UTC de 22 dakika önce yapıldı.
Rüzgar kuzeybatıdan 13 kt
Sıcaklık -1°C
Nem 50%
Basınç 1034 hPa
Görüş mesafesi: 16.1 km
Açık gökyüzü

METAR: KLNS 120453Z AUTO 31013KT 10SM CLR M01/M10 A3054 RMK AO2 SLP347 T10111100 400281022

Saat: 00:15 (05:15 UTC)

Tahmin

Rapor saat 03:38 UTC de 1 saat ve 37 dakika önce yapıldı.
Ayın 12'si saat 04 UTC'den ayın 12'si saat 24 UTC'ye kadar geçerli Tahmin
Rüzgar batıdan 6 kt
Görüş mesafesi: 10 km
Açık gökyüzü
Ayın 12'si saat 0700 UTC'den
Rüzgar batıdan 5 kt
Görüş mesafesi: 10 km
Açık gökyüzü

TAF: KLNS 120338Z 1204/1224 28006KT P6SM SKC FM120700 28005KT P6SM SKC

4.000'den fazla havaalanı için hava durumu gözlemleri ve tahminleri (METAR ve TAF raporları).

Kullanılabilir istasyonlar harita üzerinde sarı ve kırmızı noktalarla gösterilir.

İstasyonun adını görmek için fareyi noktanın üzerinde gezdirin.

Sonrasında hava gözlem ve tahminlerini görmek için tıklayın.

Haritayı değiştirmek için: yaklaştırmak için siyah artı işaretli yeşil düğmeye ve uzaklaştırmak için de eksi işaretli düğmeye hızla tıklayın; bitişik haritalar için yeşil okları kullanın.


METAR-TAF: